sensor_id;sensor_type;location;lat;lon;timestamp;pressure;altitude;pressure_sealevel;temperature;humidity
44675;BME280;30388;52.038;-1.478;2023-03-26T00:00:58;65812.57;;;9.51;100.00
44675;BME280;30388;52.038;-1.478;2023-03-26T00:03:25;65803.68;;;10.10;100.00
44675;BME280;30388;52.038;-1.478;2023-03-26T00:06:01;65788.18;;;9.68;100.00
44675;BME280;30388;52.038;-1.478;2023-03-26T00:08:28;65739.13;;;9.55;100.00
44675;BME280;30388;52.038;-1.478;2023-03-26T00:10:55;65747.30;;;9.66;100.00
44675;BME280;30388;52.038;-1.478;2023-03-26T00:13:22;65518.57;;;7.47;100.00
44675;BME280;30388;52.038;-1.478;2023-03-26T00:15:49;65580.15;;;8.48;100.00
44675;BME280;30388;52.038;-1.478;2023-03-26T00:18:17;65687.00;;;9.12;100.00
44675;BME280;30388;52.038;-1.478;2023-03-26T00:20:44;65735.58;;;9.73;100.00
44675;BME280;30388;52.038;-1.478;2023-03-26T00:23:11;65724.10;;;9.59;100.00
44675;BME280;30388;52.038;-1.478;2023-03-26T00:25:38;65646.61;;;8.87;100.00
44675;BME280;30388;52.038;-1.478;2023-03-26T00:28:05;65526.82;;;7.80;100.00
44675;BME280;30388;52.038;-1.478;2023-03-26T00:30:33;65596.42;;;8.46;100.00
44675;BME280;30388;52.038;-1.478;2023-03-26T00:33:01;65617.98;;;8.73;100.00
44675;BME280;30388;52.038;-1.478;2023-03-26T00:35:28;65662.85;;;9.08;100.00
44675;BME280;30388;52.038;-1.478;2023-03-26T00:37:55;65692.08;;;9.44;100.00
44675;BME280;30388;52.038;-1.478;2023-03-26T00:40:22;65636.79;;;8.74;100.00
44675;BME280;30388;52.038;-1.478;2023-03-26T00:42:49;65681.18;;;9.31;100.00
44675;BME280;30388;52.038;-1.478;2023-03-26T00:45:17;65630.49;;;8.89;100.00
44675;BME280;30388;52.038;-1.478;2023-03-26T00:47:44;65587.93;;;8.35;100.00
44675;BME280;30388;52.038;-1.478;2023-03-26T00:50:11;65456.64;;;7.18;100.00
44675;BME280;30388;52.038;-1.478;2023-03-26T00:52:38;65460.95;;;7.23;100.00
44675;BME280;30388;52.038;-1.478;2023-03-26T00:55:06;65447.19;;;6.79;100.00
44675;BME280;30388;52.038;-1.478;2023-03-26T00:57:34;65515.94;;;7.66;100.00
44675;BME280;30388;52.038;-1.478;2023-03-26T01:00:01;65383.38;;;6.69;100.00
44675;BME280;30388;52.038;-1.478;2023-03-26T01:02:28;65486.89;;;7.29;100.00
44675;BME280;30388;52.038;-1.478;2023-03-26T01:04:57;65482.40;;;7.50;100.00
44675;BME280;30388;52.038;-1.478;2023-03-26T01:07:25;65581.11;;;8.49;100.00
44675;BME280;30388;52.038;-1.478;2023-03-26T01:09:54;65594.96;;;8.43;100.00
44675;BME280;30388;52.038;-1.478;2023-03-26T01:12:24;65555.69;;;8.17;100.00
44675;BME280;30388;52.038;-1.478;2023-03-26T01:14:54;65569.15;;;8.33;100.00
44675;BME280;30388;52.038;-1.478;2023-03-26T01:17:23;65481.81;;;7.49;100.00
44675;BME280;30388;52.038;-1.478;2023-03-26T01:19:53;65384.24;;;6.70;100.00
44675;BME280;30388;52.038;-1.478;2023-03-26T01:22:24;65331.31;;;6.29;100.00
44675;BME280;30388;52.038;-1.478;2023-03-26T01:24:52;65316.77;;;6.12;100.00
44675;BME280;30388;52.038;-1.478;2023-03-26T01:27:25;65317.23;;;6.34;100.00
44675;BME280;30388;52.038;-1.478;2023-03-26T01:29:57;65326.30;;;6.24;100.00
44675;BME280;30388;52.038;-1.478;2023-03-26T01:32:37;65329.69;;;6.29;100.00
44675;BME280;30388;52.038;-1.478;2023-03-26T01:35:19;65363.89;;;6.45;100.00
44675;BME280;30388;52.038;-1.478;2023-03-26T01:37:59;65334.77;;;6.07;100.00
44675;BME280;30388;52.038;-1.478;2023-03-26T01:40:31;65340.72;;;6.41;100.00
44675;BME280;30388;52.038;-1.478;2023-03-26T01:43:02;65351.68;;;6.56;100.00
44675;BME280;30388;52.038;-1.478;2023-03-26T01:45:36;65343.59;;;6.46;100.00
44675;BME280;30388;52.038;-1.478;2023-03-26T01:48:05;65379.35;;;6.91;100.00
44675;BME280;30388;52.038;-1.478;2023-03-26T01:50:33;65370.97;;;6.54;100.00
44675;BME280;30388;52.038;-1.478;2023-03-26T01:53:00;65306.20;;;5.99;100.00
44675;BME280;30388;52.038;-1.478;2023-03-26T01:55:36;65275.03;;;6.07;100.00
44675;BME280;30388;52.038;-1.478;2023-03-26T01:58:12;65289.60;;;6.00;100.00
44675;BME280;30388;52.038;-1.478;2023-03-26T02:00:47;65250.88;;;5.77;100.00
44675;BME280;30388;52.038;-1.478;2023-03-26T02:03:24;65229.30;;;5.50;100.00
44675;BME280;30388;52.038;-1.478;2023-03-26T02:05:59;65198.44;;;5.55;100.00
44675;BME280;30388;52.038;-1.478;2023-03-26T02:08:33;65188.82;;;5.43;100.00
44675;BME280;30388;52.038;-1.478;2023-03-26T02:11:05;65189.07;;;5.43;100.00
44675;BME280;30388;52.038;-1.478;2023-03-26T02:13:33;65205.78;;;5.20;100.00
44675;BME280;30388;52.038;-1.478;2023-03-26T02:16:02;65209.42;;;5.68;100.00
44675;BME280;30388;52.038;-1.478;2023-03-26T02:18:30;65206.67;;;5.65;100.00
44675;BME280;30388;52.038;-1.478;2023-03-26T02:20:57;65199.88;;;5.57;100.00
44675;BME280;30388;52.038;-1.478;2023-03-26T02:23:24;65169.90;;;5.18;100.00
44675;BME280;30388;52.038;-1.478;2023-03-26T02:25:52;65193.39;;;5.48;100.00
44675;BME280;30388;52.038;-1.478;2023-03-26T02:28:20;65217.38;;;5.57;100.00
44675;BME280;30388;52.038;-1.478;2023-03-26T02:30:47;65211.42;;;5.71;100.00
44675;BME280;30388;52.038;-1.478;2023-03-26T02:33:14;65221.23;;;5.38;100.00
44675;BME280;30388;52.038;-1.478;2023-03-26T02:35:42;65245.98;;;5.44;100.00
44675;BME280;30388;52.038;-1.478;2023-03-26T02:38:09;65200.52;;;5.35;100.00
44675;BME280;30388;52.038;-1.478;2023-03-26T02:40:36;65217.52;;;5.56;100.00
44675;BME280;30388;52.038;-1.478;2023-03-26T02:43:04;65244.48;;;5.90;100.00
44675;BME280;30388;52.038;-1.478;2023-03-26T02:45:31;65233.82;;;5.77;100.00
44675;BME280;30388;52.038;-1.478;2023-03-26T02:47:58;65292.70;;;6.03;100.00
44675;BME280;30388;52.038;-1.478;2023-03-26T02:50:25;65305.16;;;5.96;100.00
44675;BME280;30388;52.038;-1.478;2023-03-26T02:52:53;65314.65;;;6.09;100.00
44675;BME280;30388;52.038;-1.478;2023-03-26T02:55:21;65315.56;;;6.11;100.00
44675;BME280;30388;52.038;-1.478;2023-03-26T02:57:48;65299.56;;;5.90;100.00
44675;BME280;30388;52.038;-1.478;2023-03-26T03:00:15;65274.24;;;5.80;100.00
44675;BME280;30388;52.038;-1.478;2023-03-26T03:02:42;65264.08;;;5.94;100.00
44675;BME280;30388;52.038;-1.478;2023-03-26T03:05:10;65268.53;;;5.99;100.00
44675;BME280;30388;52.038;-1.478;2023-03-26T03:07:37;65294.30;;;6.05;100.00
44675;BME280;30388;52.038;-1.478;2023-03-26T03:10:05;65280.18;;;6.14;100.00
44675;BME280;30388;52.038;-1.478;2023-03-26T03:12:32;65294.73;;;6.06;100.00
44675;BME280;30388;52.038;-1.478;2023-03-26T03:15:00;65309.19;;;6.51;100.00
44675;BME280;30388;52.038;-1.478;2023-03-26T03:17:27;65253.18;;;6.02;100.00
44675;BME280;30388;52.038;-1.478;2023-03-26T03:19:54;65191.94;;;5.46;100.00
44675;BME280;30388;52.038;-1.478;2023-03-26T03:22:21;65193.37;;;5.26;100.00
44675;BME280;30388;52.038;-1.478;2023-03-26T03:24:49;65243.85;;;5.90;100.00
44675;BME280;30388;52.038;-1.478;2023-03-26T03:27:16;65264.62;;;6.16;100.00
44675;BME280;30388;52.038;-1.478;2023-03-26T03:29:43;65221.36;;;5.61;100.00
44675;BME280;30388;52.038;-1.478;2023-03-26T03:32:11;65199.88;;;5.35;100.00
44675;BME280;30388;52.038;-1.478;2023-03-26T03:34:38;65207.46;;;5.44;100.00
44675;BME280;30388;52.038;-1.478;2023-03-26T03:37:05;65242.25;;;5.88;100.00
44675;BME280;30388;52.038;-1.478;2023-03-26T03:39:32;65262.99;;;5.92;100.00
44675;BME280;30388;52.038;-1.478;2023-03-26T03:41:59;65230.25;;;5.73;100.00
44675;BME280;30388;52.038;-1.478;2023-03-26T03:44:27;65233.30;;;5.55;100.00
44675;BME280;30388;52.038;-1.478;2023-03-26T03:46:54;65219.28;;;5.37;100.00
44675;BME280;30388;52.038;-1.478;2023-03-26T03:49:22;65209.90;;;5.47;100.00
44675;BME280;30388;52.038;-1.478;2023-03-26T03:51:49;65220.35;;;5.60;100.00
44675;BME280;30388;52.038;-1.478;2023-03-26T03:54:16;65240.62;;;5.86;100.00
44675;BME280;30388;52.038;-1.478;2023-03-26T03:56:43;65225.81;;;5.67;100.00
44675;BME280;30388;52.038;-1.478;2023-03-26T03:59:11;65192.06;;;5.25;100.00
44675;BME280;30388;52.038;-1.478;2023-03-26T04:01:38;65193.03;;;5.47;100.00
44675;BME280;30388;52.038;-1.478;2023-03-26T04:04:05;65184.48;;;5.38;100.00
44675;BME280;30388;52.038;-1.478;2023-03-26T04:06:32;65186.88;;;5.39;100.00
44675;BME280;30388;52.038;-1.478;2023-03-26T04:09:00;65185.01;;;5.16;100.00
44675;BME280;30388;52.038;-1.478;2023-03-26T04:11:27;65210.08;;;5.70;100.00
44675;BME280;30388;52.038;-1.478;2023-03-26T04:13:54;65233.02;;;5.54;100.00
44675;BME280;30388;52.038;-1.478;2023-03-26T04:16:21;65206.83;;;5.21;100.00
44675;BME280;30388;52.038;-1.478;2023-03-26T04:18:49;65213.22;;;5.51;100.00
44675;BME280;30388;52.038;-1.478;2023-03-26T04:21:16;65191.63;;;5.47;100.00
44675;BME280;30388;52.038;-1.478;2023-03-26T04:23:43;65206.64;;;5.44;100.00
44675;BME280;30388;52.038;-1.478;2023-03-26T04:26:14;65168.40;;;5.16;100.00
44675;BME280;30388;52.038;-1.478;2023-03-26T04:28:44;65193.42;;;5.49;100.00
44675;BME280;30388;52.038;-1.478;2023-03-26T04:31:16;65223.38;;;5.64;100.00
44675;BME280;30388;52.038;-1.478;2023-03-26T04:33:45;65151.95;;;4.95;100.00
44675;BME280;30388;52.038;-1.478;2023-03-26T04:36:13;65126.41;;;4.63;100.00
44675;BME280;30388;52.038;-1.478;2023-03-26T04:38:42;65102.73;;;4.32;100.00
44675;BME280;30388;52.038;-1.478;2023-03-26T04:41:11;65128.60;;;4.66;100.00
44675;BME280;30388;52.038;-1.478;2023-03-26T04:43:39;65142.70;;;4.83;100.00
44675;BME280;30388;52.038;-1.478;2023-03-26T04:46:06;65197.58;;;5.53;100.00
44675;BME280;30388;52.038;-1.478;2023-03-26T04:48:33;65204.34;;;5.18;100.00
44675;BME280;30388;52.038;-1.478;2023-03-26T04:51:00;65331.18;;;6.29;100.00
44675;BME280;30388;52.038;-1.478;2023-03-26T04:53:28;65345.47;;;6.49;100.00
44675;BME280;30388;52.038;-1.478;2023-03-26T04:55:59;65378.89;;;6.90;100.00
44675;BME280;30388;52.038;-1.478;2023-03-26T04:58:27;65498.11;;;7.93;100.00
44675;BME280;30388;52.038;-1.478;2023-03-26T05:00:55;65485.49;;;7.28;100.00
44675;BME280;30388;52.038;-1.478;2023-03-26T05:03:22;65514.86;;;7.65;100.00
44675;BME280;30388;52.038;-1.478;2023-03-26T05:05:49;65469.36;;;7.34;100.00
44675;BME280;30388;52.038;-1.478;2023-03-26T05:08:17;65417.61;;;6.91;100.00
44675;BME280;30388;52.038;-1.478;2023-03-26T05:10:45;65509.47;;;7.59;100.00
44675;BME280;30388;52.038;-1.478;2023-03-26T05:13:12;65486.93;;;7.56;100.00
44675;BME280;30388;52.038;-1.478;2023-03-26T05:15:39;65509.07;;;7.84;100.00
44675;BME280;30388;52.038;-1.478;2023-03-26T05:18:06;65514.58;;;7.91;100.00
44675;BME280;30388;52.038;-1.478;2023-03-26T05:20:34;65596.22;;;8.68;100.00
44675;BME280;30388;52.038;-1.478;2023-03-26T05:23:01;65648.18;;;8.90;100.00
44675;BME280;30388;52.038;-1.478;2023-03-26T05:25:28;65687.00;;;9.38;100.00
44675;BME280;30388;52.038;-1.478;2023-03-26T05:27:55;65709.40;;;9.18;100.00
44675;BME280;30388;52.038;-1.478;2023-03-26T05:30:23;65776.14;;;10.02;100.00
44675;BME280;30388;52.038;-1.478;2023-03-26T05:32:50;65793.35;;;10.24;100.00
44675;BME280;30388;52.038;-1.478;2023-03-26T05:35:17;65785.71;;;10.14;100.00
44675;BME280;30388;52.038;-1.478;2023-03-26T05:37:45;65788.57;;;10.18;100.00
44675;BME280;30388;52.038;-1.478;2023-03-26T05:40:13;65803.77;;;10.37;100.00
44675;BME280;30388;52.038;-1.478;2023-03-26T05:42:40;65815.53;;;10.52;100.00
44675;BME280;30388;52.038;-1.478;2023-03-26T05:45:10;65782.66;;;10.11;100.00
44675;BME280;30388;52.038;-1.478;2023-03-26T05:47:38;65679.11;;;8.79;100.00
44675;BME280;30388;52.038;-1.478;2023-03-26T05:50:06;65777.23;;;9.78;100.00
44675;BME280;30388;52.038;-1.478;2023-03-26T05:52:34;65819.37;;;10.57;100.00
44675;BME280;30388;52.038;-1.478;2023-03-26T05:55:02;65784.88;;;10.13;100.00
44675;BME280;30388;52.038;-1.478;2023-03-26T05:57:30;65745.44;;;10.11;100.00
44675;BME280;30388;52.038;-1.478;2023-03-26T05:59:57;65707.24;;;9.15;100.00
44675;BME280;30388;52.038;-1.478;2023-03-26T06:02:25;65711.61;;;9.69;100.00
44675;BME280;30388;52.038;-1.478;2023-03-26T06:04:52;65704.11;;;9.60;100.00
44675;BME280;30388;52.038;-1.478;2023-03-26T06:07:19;65730.56;;;9.17;100.00
44675;BME280;30388;52.038;-1.478;2023-03-26T06:09:46;65770.72;;;9.95;100.00
44675;BME280;30388;52.038;-1.478;2023-03-26T06:12:14;65776.25;;;10.02;100.00
44675;BME280;30388;52.038;-1.478;2023-03-26T06:14:41;65785.48;;;10.13;100.00
44675;BME280;30388;52.038;-1.478;2023-03-26T06:17:08;65840.16;;;10.56;100.00
44675;BME280;30388;52.038;-1.478;2023-03-26T06:19:35;65831.12;;;10.22;100.00
44675;BME280;30388;52.038;-1.478;2023-03-26T06:22:04;65835.03;;;10.50;100.00
44675;BME280;30388;52.038;-1.478;2023-03-26T06:24:31;65855.23;;;10.75;100.00
44675;BME280;30388;52.038;-1.478;2023-03-26T06:26:59;65856.35;;;10.77;100.00
44675;BME280;30388;52.038;-1.478;2023-03-26T06:29:26;65879.51;;;11.33;100.00
44675;BME280;30388;52.038;-1.478;2023-03-26T06:31:55;65829.62;;;10.43;100.00
44675;BME280;30388;52.038;-1.478;2023-03-26T06:34:22;65854.60;;;10.74;100.00
44675;BME280;30388;52.038;-1.478;2023-03-26T06:36:49;65835.22;;;10.50;100.00
44675;BME280;30388;52.038;-1.478;2023-03-26T06:39:16;65829.72;;;10.43;100.00
44675;BME280;30388;52.038;-1.478;2023-03-26T06:41:43;65829.45;;;10.20;100.00
44675;BME280;30388;52.038;-1.478;2023-03-26T06:44:11;65874.10;;;10.77;100.00
44675;BME280;30388;52.038;-1.478;2023-03-26T06:46:38;65841.27;;;10.58;100.00
44675;BME280;30388;52.038;-1.478;2023-03-26T06:49:05;65851.17;;;10.70;100.00
44675;BME280;30388;52.038;-1.478;2023-03-26T06:51:32;65847.25;;;10.65;100.00
44675;BME280;30388;52.038;-1.478;2023-03-26T06:53:59;65809.78;;;10.44;100.00
44675;BME280;30388;52.038;-1.478;2023-03-26T06:56:26;65629.25;;;8.64;100.00
44675;BME280;30388;52.038;-1.478;2023-03-26T06:58:54;65442.12;;;7.21;100.00
44675;BME280;30388;52.038;-1.478;2023-03-26T07:01:21;65376.39;;;6.59;100.00
44675;BME280;30388;52.038;-1.478;2023-03-26T07:03:48;65439.66;;;7.41;100.00
44675;BME280;30388;52.038;-1.478;2023-03-26T07:06:15;65454.70;;;7.36;100.00
44675;BME280;30388;52.038;-1.478;2023-03-26T07:08:42;65436.57;;;7.14;100.00
44675;BME280;30388;52.038;-1.478;2023-03-26T07:11:09;65511.42;;;7.86;100.00
44675;BME280;30388;52.038;-1.478;2023-03-26T07:13:37;65573.79;;;8.17;100.00
44675;BME280;30388;52.038;-1.478;2023-03-26T07:16:04;65617.24;;;8.50;100.00
44675;BME280;30388;52.038;-1.478;2023-03-26T07:18:32;65639.51;;;9.00;100.00
44675;BME280;30388;52.038;-1.478;2023-03-26T07:21:00;65589.01;;;8.13;100.00
44675;BME280;30388;52.038;-1.478;2023-03-26T07:23:28;65641.16;;;8.80;100.00
44675;BME280;30388;52.038;-1.478;2023-03-26T07:25:56;65557.08;;;8.17;100.00
44675;BME280;30388;52.038;-1.478;2023-03-26T07:28:32;65504.12;;;7.99;100.00
44675;BME280;30388;52.038;-1.478;2023-03-26T07:31:11;65468.14;;;7.32;100.00
44675;BME280;30388;52.038;-1.478;2023-03-26T07:33:46;65423.24;;;6.75;100.00
44675;BME280;30388;52.038;-1.478;2023-03-26T07:36:21;65387.47;;;6.52;100.00
44675;BME280;30388;52.038;-1.478;2023-03-26T07:39:06;65383.58;;;6.69;100.00
44675;BME280;30388;52.038;-1.478;2023-03-26T07:41:39;65389.03;;;7.03;100.00
44675;BME280;30388;52.038;-1.478;2023-03-26T07:44:22;65384.08;;;6.47;100.00
44675;BME280;30388;52.038;-1.478;2023-03-26T07:46:54;65293.31;;;6.31;100.00
44675;BME280;30388;52.038;-1.478;2023-03-26T07:49:22;65281.36;;;5.66;100.00
44675;BME280;30388;52.038;-1.478;2023-03-26T07:51:50;65263.82;;;5.93;100.00
44675;BME280;30388;52.038;-1.478;2023-03-26T07:54:18;65275.10;;;5.58;100.00
44675;BME280;30388;52.038;-1.478;2023-03-26T07:56:54;65302.73;;;6.42;100.00
44675;BME280;30388;52.038;-1.478;2023-03-26T07:59:29;65271.17;;;5.53;100.00
44675;BME280;30388;52.038;-1.478;2023-03-26T08:02:16;65269.43;;;6.01;100.00
44675;BME280;30388;52.038;-1.478;2023-03-26T08:04:59;65266.31;;;5.96;100.00
44675;BME280;30388;52.038;-1.478;2023-03-26T08:07:37;65253.07;;;5.53;100.00
44675;BME280;30388;52.038;-1.478;2023-03-26T08:10:14;65225.59;;;5.45;100.00
44675;BME280;30388;52.038;-1.478;2023-03-26T08:12:54;65217.69;;;5.56;100.00
44675;BME280;30388;52.038;-1.478;2023-03-26T08:15:27;65214.67;;;5.31;100.00
44675;BME280;30388;52.038;-1.478;2023-03-26T08:18:02;65205.20;;;5.41;100.00
44675;BME280;30388;52.038;-1.478;2023-03-26T08:20:37;65166.89;;;5.14;100.00
44675;BME280;30388;52.038;-1.478;2023-03-26T08:23:11;65143.31;;;4.84;100.00
44675;BME280;30388;52.038;-1.478;2023-03-26T08:25:48;65150.69;;;4.94;100.00
44675;BME280;30388;52.038;-1.478;2023-03-26T08:28:24;65147.79;;;4.90;100.00
44675;BME280;30388;52.038;-1.478;2023-03-26T08:30:57;65137.90;;;4.77;100.00
44675;BME280;30388;52.038;-1.478;2023-03-26T08:33:26;65121.63;;;4.56;100.00
44675;BME280;30388;52.038;-1.478;2023-03-26T08:35:55;65118.87;;;4.81;100.00
44675;BME280;30388;52.038;-1.478;2023-03-26T08:38:22;65135.48;;;4.74;100.00
44675;BME280;30388;52.038;-1.478;2023-03-26T08:41:25;65128.51;;;4.92;100.00
44675;BME280;30388;52.038;-1.478;2023-03-26T08:44:24;65107.17;;;4.87;100.00
44675;BME280;30388;52.038;-1.478;2023-03-26T08:48:18;65121.45;;;5.06;100.00
44675;BME280;30388;52.038;-1.478;2023-03-26T08:51:06;65126.03;;;4.63;100.00
44675;BME280;30388;52.038;-1.478;2023-03-26T08:55:52;65099.90;;;5.27;100.00
44675;BME280;30388;52.038;-1.478;2023-03-26T09:00:36;65115.77;;;4.98;100.00
44675;BME280;30388;52.038;-1.478;2023-03-26T09:03:20;65136.80;;;4.76;100.00
44675;BME280;30388;52.038;-1.478;2023-03-26T09:06:11;65149.52;;;4.93;100.00
44675;BME280;30388;52.038;-1.478;2023-03-26T09:12:25;65131.95;;;5.41;100.00
44675;BME280;30388;52.038;-1.478;2023-03-26T09:17:47;65141.16;;;5.31;100.00
44675;BME280;30388;52.038;-1.478;2023-03-26T09:20:47;65170.01;;;5.19;100.00
44675;BME280;30388;52.038;-1.478;2023-03-26T09:23:53;65137.68;;;5.04;100.00
44675;BME280;30388;52.038;-1.478;2023-03-26T09:26:33;65123.26;;;4.59;100.00
44675;BME280;30388;52.038;-1.478;2023-03-26T09:30:26;65120.36;;;5.04;100.00
44675;BME280;30388;52.038;-1.478;2023-03-26T09:34:26;65124.35;;;4.87;100.00
44675;BME280;30388;52.038;-1.478;2023-03-26T09:36:55;65110.56;;;4.43;100.00
44675;BME280;30388;52.038;-1.478;2023-03-26T09:39:35;65064.13;;;4.34;100.00
44675;BME280;30388;52.038;-1.478;2023-03-26T09:42:14;65079.05;;;4.51;100.00
44675;BME280;30388;52.038;-1.478;2023-03-26T09:45:06;65067.09;;;4.37;100.00
44675;BME280;30388;52.038;-1.478;2023-03-26T09:47:54;65077.13;;;4.50;100.00
44675;BME280;30388;52.038;-1.478;2023-03-26T09:50:34;65062.25;;;4.30;100.00
44675;BME280;30388;52.038;-1.478;2023-03-26T09:53:16;65069.16;;;4.39;100.00
44675;BME280;30388;52.038;-1.478;2023-03-26T09:55:57;65034.71;;;3.95;100.00
44675;BME280;30388;52.038;-1.478;2023-03-26T09:58:41;64972.85;;;4.14;100.00
44675;BME280;30388;52.038;-1.478;2023-03-26T10:01:16;64964.90;;;3.55;100.00
44675;BME280;30388;52.038;-1.478;2023-03-26T10:03:53;64960.57;;;3.72;100.00
44675;BME280;30388;52.038;-1.478;2023-03-26T10:06:34;64982.70;;;3.51;100.00
44675;BME280;30388;52.038;-1.478;2023-03-26T10:09:13;65020.11;;;4.26;100.00
44675;BME280;30388;52.038;-1.478;2023-03-26T10:12:01;65031.96;;;4.14;100.00
44675;BME280;30388;52.038;-1.478;2023-03-26T10:14:39;65016.76;;;4.21;100.00
44675;BME280;30388;52.038;-1.478;2023-03-26T10:17:19;65035.30;;;3.96;100.00
44675;BME280;30388;52.038;-1.478;2023-03-26T10:19:56;65017.05;;;4.22;100.00
44675;BME280;30388;52.038;-1.478;2023-03-26T10:22:39;64976.89;;;3.93;100.00
44675;BME280;30388;52.038;-1.478;2023-03-26T10:25:21;64963.42;;;3.76;100.00
44675;BME280;30388;52.038;-1.478;2023-03-26T10:28:01;64966.35;;;3.79;100.00
44675;BME280;30388;52.038;-1.478;2023-03-26T10:30:45;64981.42;;;3.76;100.00
44675;BME280;30388;52.038;-1.478;2023-03-26T10:33:23;64979.29;;;3.96;100.00
44675;BME280;30388;52.038;-1.478;2023-03-26T10:36:06;65005.39;;;4.07;100.00
44675;BME280;30388;52.038;-1.478;2023-03-26T10:38:52;64993.91;;;3.92;100.00
44675;BME280;30388;52.038;-1.478;2023-03-26T10:41:29;65030.47;;;4.39;100.00
44675;BME280;30388;52.038;-1.478;2023-03-26T10:44:21;65036.29;;;4.46;100.00
44675;BME280;30388;52.038;-1.478;2023-03-26T10:47:10;65050.24;;;4.15;100.00
44675;BME280;30388;52.038;-1.478;2023-03-26T10:49:59;65046.47;;;4.33;100.00
44675;BME280;30388;52.038;-1.478;2023-03-26T10:52:33;65074.75;;;4.46;100.00
44675;BME280;30388;52.038;-1.478;2023-03-26T10:55:10;65072.28;;;4.43;100.00
44675;BME280;30388;52.038;-1.478;2023-03-26T10:57:43;65040.28;;;4.24;100.00
44675;BME280;30388;52.038;-1.478;2023-03-26T11:00:16;65020.48;;;3.99;100.00
44675;BME280;30388;52.038;-1.478;2023-03-26T11:03:09;65018.93;;;4.24;100.00
44675;BME280;30388;52.038;-1.478;2023-03-26T11:05:46;65023.90;;;4.30;100.00
44675;BME280;30388;52.038;-1.478;2023-03-26T11:08:20;64991.61;;;3.90;100.00
44675;BME280;30388;52.038;-1.478;2023-03-26T11:10:53;65030.54;;;4.12;100.00
44675;BME280;30388;52.038;-1.478;2023-03-26T11:13:32;65014.95;;;4.19;100.00
44675;BME280;30388;52.038;-1.478;2023-03-26T11:16:07;65014.45;;;3.92;100.00
44675;BME280;30388;52.038;-1.478;2023-03-26T11:18:42;64994.91;;;3.94;100.00
44675;BME280;30388;52.038;-1.478;2023-03-26T11:21:19;65005.38;;;4.07;100.00
44675;BME280;30388;52.038;-1.478;2023-03-26T11:24:02;65020.20;;;4.26;100.00
44675;BME280;30388;52.038;-1.478;2023-03-26T11:26:43;65064.58;;;4.34;100.00
44675;BME280;30388;52.038;-1.478;2023-03-26T11:29:26;65036.16;;;4.46;100.00
44675;BME280;30388;52.038;-1.478;2023-03-26T11:32:02;65052.83;;;4.68;100.00
44675;BME280;30388;52.038;-1.478;2023-03-26T11:34:34;65039.98;;;4.25;100.00
44675;BME280;30388;52.038;-1.478;2023-03-26T11:37:07;65025.62;;;4.06;100.00
44675;BME280;30388;52.038;-1.478;2023-03-26T11:39:43;65058.38;;;4.26;100.00
44675;BME280;30388;52.038;-1.478;2023-03-26T11:42:13;65070.76;;;4.41;100.00
44675;BME280;30388;52.038;-1.478;2023-03-26T11:44:46;65047.62;;;4.34;100.00
44675;BME280;30388;52.038;-1.478;2023-03-26T11:47:21;65037.33;;;4.22;100.00
44675;BME280;30388;52.038;-1.478;2023-03-26T11:49:50;65069.32;;;4.62;100.00
44675;BME280;30388;52.038;-1.478;2023-03-26T11:52:21;65065.47;;;4.35;100.00
44675;BME280;30388;52.038;-1.478;2023-03-26T11:54:48;65089.67;;;4.66;100.00
44675;BME280;30388;52.038;-1.478;2023-03-26T11:57:18;65096.35;;;4.74;100.00
44675;BME280;30388;52.038;-1.478;2023-03-26T11:59:51;65093.90;;;4.71;100.00
44675;BME280;30388;52.038;-1.478;2023-03-26T12:02:25;65085.17;;;4.82;100.00
44675;BME280;30388;52.038;-1.478;2023-03-26T12:05:11;65122.16;;;5.07;100.00
44675;BME280;30388;52.038;-1.478;2023-03-26T12:07:45;65102.74;;;4.83;100.00
44675;BME280;30388;52.038;-1.478;2023-03-26T12:10:24;65078.22;;;4.73;100.00
44675;BME280;30388;52.038;-1.478;2023-03-26T12:12:55;65078.04;;;4.73;100.00
44675;BME280;30388;52.038;-1.478;2023-03-26T12:15:24;65075.57;;;4.70;100.00
44675;BME280;30388;52.038;-1.478;2023-03-26T12:17:53;65071.61;;;4.65;100.00
44675;BME280;30388;52.038;-1.478;2023-03-26T12:20:31;65092.66;;;4.91;100.00
44675;BME280;30388;52.038;-1.478;2023-03-26T12:23:01;65108.82;;;4.90;100.00
44675;BME280;30388;52.038;-1.478;2023-03-26T12:25:30;65163.33;;;5.10;100.00
44675;BME280;30388;52.038;-1.478;2023-03-26T12:28:00;65178.11;;;5.29;100.00
44675;BME280;30388;52.038;-1.478;2023-03-26T12:30:29;65128.00;;;5.15;100.00
44675;BME280;30388;52.038;-1.478;2023-03-26T12:32:59;65123.53;;;5.08;100.00
44675;BME280;30388;52.038;-1.478;2023-03-26T12:35:28;65149.17;;;4.92;100.00
44675;BME280;30388;52.038;-1.478;2023-03-26T12:38:14;65196.34;;;5.52;100.00
44675;BME280;30388;52.038;-1.478;2023-03-26T12:40:42;65183.81;;;5.63;100.00
44675;BME280;30388;52.038;-1.478;2023-03-26T12:43:21;65147.48;;;5.39;100.00
44675;BME280;30388;52.038;-1.478;2023-03-26T12:45:53;65159.51;;;5.54;100.00
44675;BME280;30388;52.038;-1.478;2023-03-26T12:48:20;65163.72;;;5.37;100.00
44675;BME280;30388;52.038;-1.478;2023-03-26T12:50:57;65157.88;;;5.52;100.00
44675;BME280;30388;52.038;-1.478;2023-03-26T12:53:53;65181.48;;;5.33;100.00
44675;BME280;30388;52.038;-1.478;2023-03-26T12:56:27;65149.65;;;5.41;100.00
44675;BME280;30388;52.038;-1.478;2023-03-26T12:59:06;65153.15;;;5.46;100.00
44675;BME280;30388;52.038;-1.478;2023-03-26T13:01:44;65154.40;;;5.48;100.00
44675;BME280;30388;52.038;-1.478;2023-03-26T13:04:25;65175.41;;;5.74;100.00
44675;BME280;30388;52.038;-1.478;2023-03-26T13:07:02;65216.82;;;5.78;100.00
44675;BME280;30388;52.038;-1.478;2023-03-26T13:09:42;65222.00;;;5.85;100.00
44675;BME280;30388;52.038;-1.478;2023-03-26T13:12:24;65247.54;;;6.17;100.00
44675;BME280;30388;52.038;-1.478;2023-03-26T13:15:05;65269.98;;;6.46;100.00
44675;BME280;30388;52.038;-1.478;2023-03-26T13:17:39;65246.31;;;6.15;100.00
44675;BME280;30388;52.038;-1.478;2023-03-26T13:20:15;65210.15;;;5.70;100.00
44675;BME280;30388;52.038;-1.478;2023-03-26T13:20:23;65217.40;;;6.05;100.00
44675;BME280;30388;52.038;-1.478;2023-03-26T13:23:00;65213.00;;;5.99;100.00
44675;BME280;30388;52.038;-1.478;2023-03-26T13:25:34;65207.62;;;5.66;100.00
44675;BME280;30388;52.038;-1.478;2023-03-26T13:28:13;65201.44;;;5.59;100.00